sensor_id;sensor_type;location;lat;lon;timestamp;P1;durP1;ratioP1;P2;durP2;ratioP2
61150;SDS011;47029;50.994;2.876;2022-07-29T00:00:05;8.75;;;3.65;;
61150;SDS011;47029;50.994;2.876;2022-07-29T00:02:32;9.25;;;3.60;;
61150;SDS011;47029;50.994;2.876;2022-07-29T00:04:58;9.48;;;3.70;;
61150;SDS011;47029;50.994;2.876;2022-07-29T00:07:24;10.70;;;3.90;;
61150;SDS011;47029;50.994;2.876;2022-07-29T00:09:50;10.40;;;3.78;;
61150;SDS011;47029;50.994;2.876;2022-07-29T00:12:15;10.77;;;4.03;;
61150;SDS011;47029;50.994;2.876;2022-07-29T00:14:41;9.27;;;3.60;;
61150;SDS011;47029;50.994;2.876;2022-07-29T00:17:07;10.15;;;3.97;;
61150;SDS011;47029;50.994;2.876;2022-07-29T00:19:33;9.90;;;3.87;;
61150;SDS011;47029;50.994;2.876;2022-07-29T00:21:59;10.52;;;4.07;;
61150;SDS011;47029;50.994;2.876;2022-07-29T00:24:25;9.23;;;3.87;;
61150;SDS011;47029;50.994;2.876;2022-07-29T00:26:51;10.05;;;4.10;;
61150;SDS011;47029;50.994;2.876;2022-07-29T00:29:17;10.10;;;3.90;;
61150;SDS011;47029;50.994;2.876;2022-07-29T00:31:43;9.63;;;3.83;;
61150;SDS011;47029;50.994;2.876;2022-07-29T00:34:09;9.85;;;4.07;;
61150;SDS011;47029;50.994;2.876;2022-07-29T00:36:54;8.65;;;3.80;;
61150;SDS011;47029;50.994;2.876;2022-07-29T00:39:20;9.60;;;3.90;;
61150;SDS011;47029;50.994;2.876;2022-07-29T00:41:46;10.63;;;3.65;;
61150;SDS011;47029;50.994;2.876;2022-07-29T00:44:12;9.50;;;4.00;;
61150;SDS011;47029;50.994;2.876;2022-07-29T00:46:37;9.60;;;4.15;;
61150;SDS011;47029;50.994;2.876;2022-07-29T00:49:03;8.52;;;3.72;;
61150;SDS011;47029;50.994;2.876;2022-07-29T00:51:29;10.50;;;4.03;;
61150;SDS011;47029;50.994;2.876;2022-07-29T00:53:56;11.55;;;3.72;;
61150;SDS011;47029;50.994;2.876;2022-07-29T00:56:22;9.40;;;4.20;;
61150;SDS011;47029;50.994;2.876;2022-07-29T00:58:48;9.77;;;4.37;;
61150;SDS011;47029;50.994;2.876;2022-07-29T01:01:16;9.07;;;4.20;;
61150;SDS011;47029;50.994;2.876;2022-07-29T01:03:42;11.10;;;4.30;;
61150;SDS011;47029;50.994;2.876;2022-07-29T01:06:07;9.40;;;4.05;;
61150;SDS011;47029;50.994;2.876;2022-07-29T01:08:34;10.82;;;4.60;;
61150;SDS011;47029;50.994;2.876;2022-07-29T01:11:01;14.02;;;4.05;;
61150;SDS011;47029;50.994;2.876;2022-07-29T01:13:27;9.20;;;4.30;;
61150;SDS011;47029;50.994;2.876;2022-07-29T01:16:00;11.25;;;4.72;;
61150;SDS011;47029;50.994;2.876;2022-07-29T01:18:39;10.10;;;4.62;;
61150;SDS011;47029;50.994;2.876;2022-07-29T01:21:27;10.45;;;4.32;;
61150;SDS011;47029;50.994;2.876;2022-07-29T01:27:38;11.25;;;4.28;;
61150;SDS011;47029;50.994;2.876;2022-07-29T01:30:12;10.70;;;4.55;;
61150;SDS011;47029;50.994;2.876;2022-07-29T01:32:38;10.20;;;4.40;;
61150;SDS011;47029;50.994;2.876;2022-07-29T01:35:10;10.43;;;4.50;;
61150;SDS011;47029;50.994;2.876;2022-07-29T01:37:45;10.02;;;4.40;;
61150;SDS011;47029;50.994;2.876;2022-07-29T01:40:33;9.10;;;4.50;;
61150;SDS011;47029;50.994;2.876;2022-07-29T01:43:26;10.05;;;4.47;;
61150;SDS011;47029;50.994;2.876;2022-07-29T01:45:57;10.45;;;4.50;;
61150;SDS011;47029;50.994;2.876;2022-07-29T01:48:37;10.75;;;4.68;;
61150;SDS011;47029;50.994;2.876;2022-07-29T01:53:47;12.18;;;5.55;;
61150;SDS011;47029;50.994;2.876;2022-07-29T01:56:20;10.75;;;4.60;;
61150;SDS011;47029;50.994;2.876;2022-07-29T01:58:49;11.23;;;4.80;;
61150;SDS011;47029;50.994;2.876;2022-07-29T02:01:17;14.20;;;5.07;;
61150;SDS011;47029;50.994;2.876;2022-07-29T02:03:44;9.93;;;4.60;;
61150;SDS011;47029;50.994;2.876;2022-07-29T02:06:11;11.07;;;4.68;;
61150;SDS011;47029;50.994;2.876;2022-07-29T02:08:41;13.82;;;5.20;;
61150;SDS011;47029;50.994;2.876;2022-07-29T02:11:08;12.25;;;5.20;;
61150;SDS011;47029;50.994;2.876;2022-07-29T02:13:34;9.98;;;4.68;;
61150;SDS011;47029;50.994;2.876;2022-07-29T02:16:02;13.43;;;5.00;;
61150;SDS011;47029;50.994;2.876;2022-07-29T02:18:32;12.65;;;5.12;;
61150;SDS011;47029;50.994;2.876;2022-07-29T02:21:00;10.15;;;4.85;;
61150;SDS011;47029;50.994;2.876;2022-07-29T02:23:28;9.73;;;4.87;;
61150;SDS011;47029;50.994;2.876;2022-07-29T02:25:57;11.40;;;5.30;;
61150;SDS011;47029;50.994;2.876;2022-07-29T02:28:28;10.43;;;4.85;;
61150;SDS011;47029;50.994;2.876;2022-07-29T02:30:56;10.73;;;4.93;;
61150;SDS011;47029;50.994;2.876;2022-07-29T02:33:24;11.77;;;5.68;;
61150;SDS011;47029;50.994;2.876;2022-07-29T02:35:51;10.90;;;5.32;;
61150;SDS011;47029;50.994;2.876;2022-07-29T02:38:18;14.32;;;5.30;;
61150;SDS011;47029;50.994;2.876;2022-07-29T02:41:13;10.82;;;5.07;;
61150;SDS011;47029;50.994;2.876;2022-07-29T02:43:56;12.68;;;5.75;;
61150;SDS011;47029;50.994;2.876;2022-07-29T02:46:33;10.15;;;5.12;;
61150;SDS011;47029;50.994;2.876;2022-07-29T02:51:46;10.73;;;5.70;;
61150;SDS011;47029;50.994;2.876;2022-07-29T02:56:56;11.15;;;5.85;;
61150;SDS011;47029;50.994;2.876;2022-07-29T02:59:26;12.15;;;5.95;;
61150;SDS011;47029;50.994;2.876;2022-07-29T03:01:55;13.40;;;5.93;;
61150;SDS011;47029;50.994;2.876;2022-07-29T03:04:24;11.15;;;5.85;;
61150;SDS011;47029;50.994;2.876;2022-07-29T03:06:53;12.45;;;6.25;;
61150;SDS011;47029;50.994;2.876;2022-07-29T03:09:20;12.70;;;5.75;;
61150;SDS011;47029;50.994;2.876;2022-07-29T03:11:49;12.00;;;6.15;;
61150;SDS011;47029;50.994;2.876;2022-07-29T03:14:15;13.38;;;6.45;;
61150;SDS011;47029;50.994;2.876;2022-07-29T03:16:43;12.65;;;6.47;;
61150;SDS011;47029;50.994;2.876;2022-07-29T03:19:10;12.77;;;6.15;;
61150;SDS011;47029;50.994;2.876;2022-07-29T03:21:35;11.30;;;6.25;;
61150;SDS011;47029;50.994;2.876;2022-07-29T03:24:01;15.68;;;6.25;;
61150;SDS011;47029;50.994;2.876;2022-07-29T03:26:27;12.77;;;6.18;;
61150;SDS011;47029;50.994;2.876;2022-07-29T03:28:53;12.35;;;6.32;;
61150;SDS011;47029;50.994;2.876;2022-07-29T03:31:19;10.85;;;5.53;;
61150;SDS011;47029;50.994;2.876;2022-07-29T03:33:45;11.15;;;6.20;;
61150;SDS011;47029;50.994;2.876;2022-07-29T03:36:11;10.98;;;5.72;;
61150;SDS011;47029;50.994;2.876;2022-07-29T03:38:38;11.98;;;6.28;;
61150;SDS011;47029;50.994;2.876;2022-07-29T03:41:09;12.32;;;6.28;;
61150;SDS011;47029;50.994;2.876;2022-07-29T03:43:37;13.23;;;6.20;;
61150;SDS011;47029;50.994;2.876;2022-07-29T03:46:09;11.77;;;6.10;;
61150;SDS011;47029;50.994;2.876;2022-07-29T03:48:36;13.93;;;6.30;;
61150;SDS011;47029;50.994;2.876;2022-07-29T03:51:07;11.85;;;6.30;;
61150;SDS011;47029;50.994;2.876;2022-07-29T03:53:33;11.93;;;6.35;;
61150;SDS011;47029;50.994;2.876;2022-07-29T03:56:01;12.98;;;6.43;;
61150;SDS011;47029;50.994;2.876;2022-07-29T03:58:28;10.98;;;6.07;;
61150;SDS011;47029;50.994;2.876;2022-07-29T04:00:55;12.20;;;6.43;;
61150;SDS011;47029;50.994;2.876;2022-07-29T04:03:22;12.18;;;6.45;;
61150;SDS011;47029;50.994;2.876;2022-07-29T04:08:43;12.18;;;6.10;;
61150;SDS011;47029;50.994;2.876;2022-07-29T04:11:09;12.73;;;6.93;;
61150;SDS011;47029;50.994;2.876;2022-07-29T04:13:34;14.13;;;6.97;;
61150;SDS011;47029;50.994;2.876;2022-07-29T04:16:00;12.70;;;6.75;;
61150;SDS011;47029;50.994;2.876;2022-07-29T04:18:26;12.27;;;6.68;;
61150;SDS011;47029;50.994;2.876;2022-07-29T04:20:52;14.35;;;6.90;;
61150;SDS011;47029;50.994;2.876;2022-07-29T04:23:17;12.82;;;6.35;;
61150;SDS011;47029;50.994;2.876;2022-07-29T04:25:43;13.43;;;6.90;;
61150;SDS011;47029;50.994;2.876;2022-07-29T04:28:09;13.50;;;6.95;;
61150;SDS011;47029;50.994;2.876;2022-07-29T04:30:35;15.13;;;6.68;;
61150;SDS011;47029;50.994;2.876;2022-07-29T04:33:03;15.55;;;7.12;;
61150;SDS011;47029;50.994;2.876;2022-07-29T04:35:30;12.93;;;7.05;;
61150;SDS011;47029;50.994;2.876;2022-07-29T04:37:59;12.60;;;6.72;;
61150;SDS011;47029;50.994;2.876;2022-07-29T04:40:24;13.95;;;6.47;;
61150;SDS011;47029;50.994;2.876;2022-07-29T04:42:50;12.35;;;6.50;;
61150;SDS011;47029;50.994;2.876;2022-07-29T04:45:16;12.82;;;6.60;;
61150;SDS011;47029;50.994;2.876;2022-07-29T04:47:42;14.45;;;7.75;;
61150;SDS011;47029;50.994;2.876;2022-07-29T04:50:08;14.52;;;6.82;;
61150;SDS011;47029;50.994;2.876;2022-07-29T04:52:34;12.48;;;6.90;;
61150;SDS011;47029;50.994;2.876;2022-07-29T04:55:00;12.77;;;6.90;;
61150;SDS011;47029;50.994;2.876;2022-07-29T04:57:27;13.50;;;6.93;;
61150;SDS011;47029;50.994;2.876;2022-07-29T04:59:52;14.35;;;6.68;;
61150;SDS011;47029;50.994;2.876;2022-07-29T05:02:18;14.57;;;6.22;;
61150;SDS011;47029;50.994;2.876;2022-07-29T05:04:44;13.00;;;7.00;;
61150;SDS011;47029;50.994;2.876;2022-07-29T05:07:10;12.27;;;6.65;;
61150;SDS011;47029;50.994;2.876;2022-07-29T05:09:35;14.00;;;6.62;;
61150;SDS011;47029;50.994;2.876;2022-07-29T05:12:01;11.88;;;6.28;;
61150;SDS011;47029;50.994;2.876;2022-07-29T05:14:27;11.55;;;5.72;;
61150;SDS011;47029;50.994;2.876;2022-07-29T05:16:53;13.80;;;6.47;;
61150;SDS011;47029;50.994;2.876;2022-07-29T05:19:21;14.77;;;6.70;;
61150;SDS011;47029;50.994;2.876;2022-07-29T05:21:47;15.10;;;6.80;;
61150;SDS011;47029;50.994;2.876;2022-07-29T05:24:14;14.35;;;6.60;;
61150;SDS011;47029;50.994;2.876;2022-07-29T05:26:39;11.95;;;6.68;;
61150;SDS011;47029;50.994;2.876;2022-07-29T05:29:05;12.48;;;6.47;;
61150;SDS011;47029;50.994;2.876;2022-07-29T05:31:31;13.45;;;6.90;;
61150;SDS011;47029;50.994;2.876;2022-07-29T05:33:58;14.38;;;6.40;;
61150;SDS011;47029;50.994;2.876;2022-07-29T05:36:24;15.55;;;6.80;;
61150;SDS011;47029;50.994;2.876;2022-07-29T05:38:50;13.77;;;6.60;;
61150;SDS011;47029;50.994;2.876;2022-07-29T05:41:17;13.10;;;5.55;;
61150;SDS011;47029;50.994;2.876;2022-07-29T05:43:43;13.10;;;6.03;;
61150;SDS011;47029;50.994;2.876;2022-07-29T05:46:09;11.30;;;5.87;;
61150;SDS011;47029;50.994;2.876;2022-07-29T05:48:35;14.60;;;6.28;;
61150;SDS011;47029;50.994;2.876;2022-07-29T05:51:01;12.85;;;5.70;;
61150;SDS011;47029;50.994;2.876;2022-07-29T05:53:27;13.52;;;5.93;;
61150;SDS011;47029;50.994;2.876;2022-07-29T05:55:53;13.20;;;5.60;;
61150;SDS011;47029;50.994;2.876;2022-07-29T05:58:19;11.82;;;5.87;;
61150;SDS011;47029;50.994;2.876;2022-07-29T06:00:45;13.23;;;5.93;;
61150;SDS011;47029;50.994;2.876;2022-07-29T06:03:11;13.82;;;6.78;;
61150;SDS011;47029;50.994;2.876;2022-07-29T06:05:37;11.25;;;6.00;;
61150;SDS011;47029;50.994;2.876;2022-07-29T06:08:03;13.05;;;6.00;;
61150;SDS011;47029;50.994;2.876;2022-07-29T06:10:32;12.40;;;5.75;;
61150;SDS011;47029;50.994;2.876;2022-07-29T06:12:59;12.85;;;5.68;;
61150;SDS011;47029;50.994;2.876;2022-07-29T06:15:25;11.57;;;5.40;;
61150;SDS011;47029;50.994;2.876;2022-07-29T06:17:51;13.20;;;5.60;;
61150;SDS011;47029;50.994;2.876;2022-07-29T06:20:17;14.15;;;5.50;;
61150;SDS011;47029;50.994;2.876;2022-07-29T06:22:43;13.13;;;5.30;;
61150;SDS011;47029;50.994;2.876;2022-07-29T06:25:09;10.02;;;4.70;;
61150;SDS011;47029;50.994;2.876;2022-07-29T06:27:36;12.43;;;4.55;;
61150;SDS011;47029;50.994;2.876;2022-07-29T06:30:02;11.90;;;4.90;;
61150;SDS011;47029;50.994;2.876;2022-07-29T06:32:31;10.32;;;4.57;;
61150;SDS011;47029;50.994;2.876;2022-07-29T06:34:57;14.65;;;4.82;;
61150;SDS011;47029;50.994;2.876;2022-07-29T06:37:23;15.38;;;5.05;;
61150;SDS011;47029;50.994;2.876;2022-07-29T06:39:49;19.58;;;5.00;;
61150;SDS011;47029;50.994;2.876;2022-07-29T06:42:35;15.10;;;5.35;;
61150;SDS011;47029;50.994;2.876;2022-07-29T06:45:01;14.25;;;4.72;;
61150;SDS011;47029;50.994;2.876;2022-07-29T06:47:27;14.55;;;4.40;;
61150;SDS011;47029;50.994;2.876;2022-07-29T06:49:53;13.55;;;4.18;;
61150;SDS011;47029;50.994;2.876;2022-07-29T06:52:19;13.52;;;4.87;;
61150;SDS011;47029;50.994;2.876;2022-07-29T06:54:45;11.98;;;4.55;;
61150;SDS011;47029;50.994;2.876;2022-07-29T06:57:13;11.73;;;4.80;;
61150;SDS011;47029;50.994;2.876;2022-07-29T06:59:39;10.32;;;4.43;;
61150;SDS011;47029;50.994;2.876;2022-07-29T07:02:05;11.70;;;4.62;;
61150;SDS011;47029;50.994;2.876;2022-07-29T07:04:31;10.05;;;4.43;;
61150;SDS011;47029;50.994;2.876;2022-07-29T07:06:58;10.70;;;4.57;;
61150;SDS011;47029;50.994;2.876;2022-07-29T07:09:24;11.02;;;5.10;;
61150;SDS011;47029;50.994;2.876;2022-07-29T07:11:51;11.63;;;4.70;;
61150;SDS011;47029;50.994;2.876;2022-07-29T07:14:16;10.80;;;5.00;;
61150;SDS011;47029;50.994;2.876;2022-07-29T07:16:42;10.50;;;4.85;;
61150;SDS011;47029;50.994;2.876;2022-07-29T07:19:08;13.70;;;5.40;;
61150;SDS011;47029;50.994;2.876;2022-07-29T07:21:34;13.45;;;5.00;;
61150;SDS011;47029;50.994;2.876;2022-07-29T07:24:00;11.27;;;5.28;;
61150;SDS011;47029;50.994;2.876;2022-07-29T07:26:26;12.02;;;4.78;;
61150;SDS011;47029;50.994;2.876;2022-07-29T07:28:52;15.43;;;4.80;;
61150;SDS011;47029;50.994;2.876;2022-07-29T07:31:18;11.73;;;4.97;;
61150;SDS011;47029;50.994;2.876;2022-07-29T07:33:44;15.57;;;5.20;;
61150;SDS011;47029;50.994;2.876;2022-07-29T07:36:10;12.48;;;5.00;;
61150;SDS011;47029;50.994;2.876;2022-07-29T07:38:36;12.27;;;5.07;;
61150;SDS011;47029;50.994;2.876;2022-07-29T07:41:02;12.52;;;4.70;;
61150;SDS011;47029;50.994;2.876;2022-07-29T07:43:28;10.55;;;4.80;;
61150;SDS011;47029;50.994;2.876;2022-07-29T07:45:54;11.05;;;4.43;;
61150;SDS011;47029;50.994;2.876;2022-07-29T07:48:20;13.55;;;4.97;;
61150;SDS011;47029;50.994;2.876;2022-07-29T07:50:46;12.77;;;5.00;;
61150;SDS011;47029;50.994;2.876;2022-07-29T07:53:14;11.43;;;5.10;;
61150;SDS011;47029;50.994;2.876;2022-07-29T07:55:41;11.52;;;4.90;;
61150;SDS011;47029;50.994;2.876;2022-07-29T07:58:08;13.88;;;4.68;;
61150;SDS011;47029;50.994;2.876;2022-07-29T08:00:34;10.38;;;4.78;;
61150;SDS011;47029;50.994;2.876;2022-07-29T08:03:00;9.50;;;4.60;;
61150;SDS011;47029;50.994;2.876;2022-07-29T08:05:26;12.23;;;4.72;;
61150;SDS011;47029;50.994;2.876;2022-07-29T08:07:52;12.10;;;5.10;;
61150;SDS011;47029;50.994;2.876;2022-07-29T08:10:18;10.27;;;4.47;;
61150;SDS011;47029;50.994;2.876;2022-07-29T08:13:06;13.20;;;4.77;;
61150;SDS011;47029;50.994;2.876;2022-07-29T08:15:33;13.52;;;4.40;;
61150;SDS011;47029;50.994;2.876;2022-07-29T08:17:59;10.82;;;4.90;;
61150;SDS011;47029;50.994;2.876;2022-07-29T08:20:25;11.32;;;4.68;;
61150;SDS011;47029;50.994;2.876;2022-07-29T08:22:51;10.23;;;4.35;;
61150;SDS011;47029;50.994;2.876;2022-07-29T08:25:18;12.13;;;4.53;;
61150;SDS011;47029;50.994;2.876;2022-07-29T08:27:46;9.85;;;4.53;;
61150;SDS011;47029;50.994;2.876;2022-07-29T08:30:12;19.62;;;4.87;;
61150;SDS011;47029;50.994;2.876;2022-07-29T08:32:38;15.07;;;5.03;;
61150;SDS011;47029;50.994;2.876;2022-07-29T08:35:04;11.93;;;4.50;;
61150;SDS011;47029;50.994;2.876;2022-07-29T08:37:31;10.27;;;4.12;;
61150;SDS011;47029;50.994;2.876;2022-07-29T08:39:57;10.27;;;4.50;;
61150;SDS011;47029;50.994;2.876;2022-07-29T08:42:23;14.23;;;4.60;;
61150;SDS011;47029;50.994;2.876;2022-07-29T08:44:49;14.30;;;5.00;;
61150;SDS011;47029;50.994;2.876;2022-07-29T08:47:15;12.68;;;4.87;;
61150;SDS011;47029;50.994;2.876;2022-07-29T08:49:41;11.10;;;4.70;;
61150;SDS011;47029;50.994;2.876;2022-07-29T08:52:10;10.10;;;4.47;;
61150;SDS011;47029;50.994;2.876;2022-07-29T08:54:37;11.60;;;4.40;;
61150;SDS011;47029;50.994;2.876;2022-07-29T08:57:04;15.00;;;4.97;;
61150;SDS011;47029;50.994;2.876;2022-07-29T08:59:30;14.70;;;5.05;;
61150;SDS011;47029;50.994;2.876;2022-07-29T09:01:59;9.95;;;4.78;;
61150;SDS011;47029;50.994;2.876;2022-07-29T09:04:26;12.77;;;5.03;;
61150;SDS011;47029;50.994;2.876;2022-07-29T09:06:56;10.23;;;4.65;;
61150;SDS011;47029;50.994;2.876;2022-07-29T09:09:27;10.57;;;4.60;;
61150;SDS011;47029;50.994;2.876;2022-07-29T09:11:56;12.02;;;4.90;;
61150;SDS011;47029;50.994;2.876;2022-07-29T09:14:25;12.05;;;4.40;;
61150;SDS011;47029;50.994;2.876;2022-07-29T09:16:52;12.35;;;5.07;;
61150;SDS011;47029;50.994;2.876;2022-07-29T09:19:22;12.50;;;4.50;;
61150;SDS011;47029;50.994;2.876;2022-07-29T09:21:49;10.00;;;4.20;;
61150;SDS011;47029;50.994;2.876;2022-07-29T09:27:00;10.15;;;3.92;;
61150;SDS011;47029;50.994;2.876;2022-07-29T09:29:27;9.32;;;3.90;;
61150;SDS011;47029;50.994;2.876;2022-07-29T09:31:53;11.60;;;3.90;;
61150;SDS011;47029;50.994;2.876;2022-07-29T09:34:24;13.60;;;4.40;;
61150;SDS011;47029;50.994;2.876;2022-07-29T09:36:53;9.73;;;4.40;;
61150;SDS011;47029;50.994;2.876;2022-07-29T09:39:30;9.85;;;4.00;;
61150;SDS011;47029;50.994;2.876;2022-07-29T09:41:56;10.50;;;3.80;;
61150;SDS011;47029;50.994;2.876;2022-07-29T09:44:25;10.02;;;3.80;;
61150;SDS011;47029;50.994;2.876;2022-07-29T09:47:00;10.25;;;3.50;;
61150;SDS011;47029;50.994;2.876;2022-07-29T09:49:34;10.77;;;3.60;;
61150;SDS011;47029;50.994;2.876;2022-07-29T09:52:09;10.30;;;3.70;;
61150;SDS011;47029;50.994;2.876;2022-07-29T09:54:36;8.30;;;3.33;;
61150;SDS011;47029;50.994;2.876;2022-07-29T09:57:03;9.85;;;3.65;;
61150;SDS011;47029;50.994;2.876;2022-07-29T09:59:57;9.85;;;3.97;;
61150;SDS011;47029;50.994;2.876;2022-07-29T10:02:29;8.88;;;3.80;;
61150;SDS011;47029;50.994;2.876;2022-07-29T10:04:56;9.40;;;3.67;;
61150;SDS011;47029;50.994;2.876;2022-07-29T10:07:22;10.70;;;4.00;;
61150;SDS011;47029;50.994;2.876;2022-07-29T10:09:52;10.00;;;3.65;;
61150;SDS011;47029;50.994;2.876;2022-07-29T10:12:22;12.15;;;4.40;;
61150;SDS011;47029;50.994;2.876;2022-07-29T10:14:49;9.00;;;3.90;;
61150;SDS011;47029;50.994;2.876;2022-07-29T10:17:16;12.80;;;3.90;;
61150;SDS011;47029;50.994;2.876;2022-07-29T10:19:43;10.98;;;4.30;;
61150;SDS011;47029;50.994;2.876;2022-07-29T10:22:10;11.68;;;4.03;;
61150;SDS011;47029;50.994;2.876;2022-07-29T10:24:37;9.98;;;3.95;;
61150;SDS011;47029;50.994;2.876;2022-07-29T10:27:04;9.30;;;3.90;;
61150;SDS011;47029;50.994;2.876;2022-07-29T10:29:32;9.32;;;4.05;;
61150;SDS011;47029;50.994;2.876;2022-07-29T10:32:07;11.88;;;3.90;;
61150;SDS011;47029;50.994;2.876;2022-07-29T10:35:08;10.35;;;4.10;;
61150;SDS011;47029;50.994;2.876;2022-07-29T10:43:22;10.10;;;4.03;;
61150;SDS011;47029;50.994;2.876;2022-07-29T10:45:57;10.80;;;4.05;;
61150;SDS011;47029;50.994;2.876;2022-07-29T10:48:25;10.65;;;4.22;;
61150;SDS011;47029;50.994;2.876;2022-07-29T10:50:52;10.48;;;4.40;;
61150;SDS011;47029;50.994;2.876;2022-07-29T10:53:21;11.93;;;4.40;;
61150;SDS011;47029;50.994;2.876;2022-07-29T10:55:48;9.40;;;4.10;;
61150;SDS011;47029;50.994;2.876;2022-07-29T10:58:19;11.18;;;4.95;;
61150;SDS011;47029;50.994;2.876;2022-07-29T11:00:48;12.55;;;4.18;;
61150;SDS011;47029;50.994;2.876;2022-07-29T11:04:01;11.55;;;4.60;;
61150;SDS011;47029;50.994;2.876;2022-07-29T11:06:09;9.93;;;4.53;;
61150;SDS011;47029;50.994;2.876;2022-07-29T11:08:35;13.00;;;4.70;;
61150;SDS011;47029;50.994;2.876;2022-07-29T11:13:52;9.77;;;4.07;;
61150;SDS011;47029;50.994;2.876;2022-07-29T11:16:20;9.25;;;4.45;;
61150;SDS011;47029;50.994;2.876;2022-07-29T11:21:39;10.38;;;4.30;;
61150;SDS011;47029;50.994;2.876;2022-07-29T11:24:33;10.88;;;4.05;;
61150;SDS011;47029;50.994;2.876;2022-07-29T11:27:06;10.05;;;4.37;;
61150;SDS011;47029;50.994;2.876;2022-07-29T11:29:33;10.57;;;4.55;;
61150;SDS011;47029;50.994;2.876;2022-07-29T11:32:08;10.43;;;4.32;;
61150;SDS011;47029;50.994;2.876;2022-07-29T11:34:36;10.32;;;4.28;;
61150;SDS011;47029;50.994;2.876;2022-07-29T11:39:44;11.40;;;4.60;;
61150;SDS011;47029;50.994;2.876;2022-07-29T11:44:54;10.15;;;4.37;;
61150;SDS011;47029;50.994;2.876;2022-07-29T11:47:26;9.18;;;4.20;;
61150;SDS011;47029;50.994;2.876;2022-07-29T11:49:55;11.60;;;4.28;;
61150;SDS011;47029;50.994;2.876;2022-07-29T11:52:22;10.07;;;3.90;;
61150;SDS011;47029;50.994;2.876;2022-07-29T11:54:49;11.12;;;3.90;;
61150;SDS011;47029;50.994;2.876;2022-07-29T11:57:16;11.07;;;4.50;;
61150;SDS011;47029;50.994;2.876;2022-07-29T11:59:45;10.77;;;4.35;;
61150;SDS011;47029;50.994;2.876;2022-07-29T12:02:12;9.82;;;4.30;;
61150;SDS011;47029;50.994;2.876;2022-07-29T12:04:52;10.70;;;4.25;;
61150;SDS011;47029;50.994;2.876;2022-07-29T12:07:18;10.20;;;4.20;;
61150;SDS011;47029;50.994;2.876;2022-07-29T12:09:54;11.27;;;4.05;;
61150;SDS011;47029;50.994;2.876;2022-07-29T12:12:20;11.45;;;4.60;;
61150;SDS011;47029;50.994;2.876;2022-07-29T12:14:46;10.32;;;3.95;;
61150;SDS011;47029;50.994;2.876;2022-07-29T12:17:25;9.65;;;4.03;;
61150;SDS011;47029;50.994;2.876;2022-07-29T12:19:59;9.70;;;4.37;;
61150;SDS011;47029;50.994;2.876;2022-07-29T12:22:34;11.73;;;4.20;;
61150;SDS011;47029;50.994;2.876;2022-07-29T12:25:12;11.57;;;4.40;;
61150;SDS011;47029;50.994;2.876;2022-07-29T12:27:40;11.35;;;3.87;;
61150;SDS011;47029;50.994;2.876;2022-07-29T12:30:17;11.95;;;4.50;;
61150;SDS011;47029;50.994;2.876;2022-07-29T12:32:46;10.82;;;3.67;;
61150;SDS011;47029;50.994;2.876;2022-07-29T12:35:19;11.50;;;4.28;;
61150;SDS011;47029;50.994;2.876;2022-07-29T12:37:47;10.40;;;4.20;;
61150;SDS011;47029;50.994;2.876;2022-07-29T12:40:17;9.05;;;3.90;;
61150;SDS011;47029;50.994;2.876;2022-07-29T12:43:08;10.30;;;4.10;;
61150;SDS011;47029;50.994;2.876;2022-07-29T12:45:49;8.90;;;3.85;;
61150;SDS011;47029;50.994;2.876;2022-07-29T12:48:40;9.57;;;3.97;;
61150;SDS011;47029;50.994;2.876;2022-07-29T12:51:08;9.35;;;3.67;;
61150;SDS011;47029;50.994;2.876;2022-07-29T12:53:39;9.38;;;4.00;;
61150;SDS011;47029;50.994;2.876;2022-07-29T12:56:14;11.25;;;4.20;;
61150;SDS011;47029;50.994;2.876;2022-07-29T12:58:43;10.80;;;3.65;;
61150;SDS011;47029;50.994;2.876;2022-07-29T13:01:13;10.35;;;3.97;;
61150;SDS011;47029;50.994;2.876;2022-07-29T13:03:45;11.75;;;4.32;;
61150;SDS011;47029;50.994;2.876;2022-07-29T13:09:10;9.70;;;3.90;;
61150;SDS011;47029;50.994;2.876;2022-07-29T13:14:13;10.20;;;3.85;;
61150;SDS011;47029;50.994;2.876;2022-07-29T13:17:06;10.77;;;4.00;;
61150;SDS011;47029;50.994;2.876;2022-07-29T13:19:37;8.52;;;3.60;;
61150;SDS011;47029;50.994;2.876;2022-07-29T13:22:10;10.15;;;3.80;;
61150;SDS011;47029;50.994;2.876;2022-07-29T13:24:56;12.60;;;3.90;;
61150;SDS011;47029;50.994;2.876;2022-07-29T13:27:27;9.65;;;4.18;;
61150;SDS011;47029;50.994;2.876;2022-07-29T13:29:57;10.40;;;4.05;;
61150;SDS011;47029;50.994;2.876;2022-07-29T13:32:27;13.73;;;4.32;;
61150;SDS011;47029;50.994;2.876;2022-07-29T13:34:56;11.88;;;4.35;;
61150;SDS011;47029;50.994;2.876;2022-07-29T13:37:24;9.43;;;3.87;;
61150;SDS011;47029;50.994;2.876;2022-07-29T13:39:57;9.65;;;3.95;;
61150;SDS011;47029;50.994;2.876;2022-07-29T13:42:28;12.55;;;3.95;;
61150;SDS011;47029;50.994;2.876;2022-07-29T13:44:58;9.65;;;3.83;;
61150;SDS011;47029;50.994;2.876;2022-07-29T13:47:27;12.15;;;3.92;;
61150;SDS011;47029;50.994;2.876;2022-07-29T13:49:56;11.80;;;4.50;;
61150;SDS011;47029;50.994;2.876;2022-07-29T13:52:29;9.35;;;3.55;;
61150;SDS011;47029;50.994;2.876;2022-07-29T13:54:58;9.73;;;4.05;;
61150;SDS011;47029;50.994;2.876;2022-07-29T13:57:27;10.48;;;4.20;;
61150;SDS011;47029;50.994;2.876;2022-07-29T13:59:56;11.73;;;4.22;;
61150;SDS011;47029;50.994;2.876;2022-07-29T14:02:24;11.45;;;4.03;;
61150;SDS011;47029;50.994;2.876;2022-07-29T14:04:53;9.90;;;3.80;;
61150;SDS011;47029;50.994;2.876;2022-07-29T14:07:22;11.95;;;4.10;;
61150;SDS011;47029;50.994;2.876;2022-07-29T14:09:51;11.65;;;4.18;;
61150;SDS011;47029;50.994;2.876;2022-07-29T14:12:20;10.52;;;4.25;;
61150;SDS011;47029;50.994;2.876;2022-07-29T14:14:49;9.98;;;3.90;;
61150;SDS011;47029;50.994;2.876;2022-07-29T14:17:18;9.60;;;4.40;;
61150;SDS011;47029;50.994;2.876;2022-07-29T14:19:47;12.32;;;4.30;;
61150;SDS011;47029;50.994;2.876;2022-07-29T14:22:16;10.32;;;4.30;;
61150;SDS011;47029;50.994;2.876;2022-07-29T14:24:45;11.10;;;4.65;;
61150;SDS011;47029;50.994;2.876;2022-07-29T14:27:14;11.73;;;4.00;;
61150;SDS011;47029;50.994;2.876;2022-07-29T14:29:43;10.13;;;4.10;;
61150;SDS011;47029;50.994;2.876;2022-07-29T14:32:12;12.23;;;4.53;;
61150;SDS011;47029;50.994;2.876;2022-07-29T14:34:42;11.68;;;4.30;;
61150;SDS011;47029;50.994;2.876;2022-07-29T14:37:11;11.82;;;4.45;;
61150;SDS011;47029;50.994;2.876;2022-07-29T14:39:40;9.27;;;4.03;;
61150;SDS011;47029;50.994;2.876;2022-07-29T14:42:10;14.48;;;5.47;;
61150;SDS011;47029;50.994;2.876;2022-07-29T14:44:39;9.90;;;4.55;;
61150;SDS011;47029;50.994;2.876;2022-07-29T14:47:07;10.75;;;4.50;;
61150;SDS011;47029;50.994;2.876;2022-07-29T14:49:36;10.95;;;4.12;;
61150;SDS011;47029;50.994;2.876;2022-07-29T14:52:05;10.27;;;4.40;;
61150;SDS011;47029;50.994;2.876;2022-07-29T14:54:34;9.82;;;4.00;;
61150;SDS011;47029;50.994;2.876;2022-07-29T14:57:03;12.75;;;4.28;;
61150;SDS011;47029;50.994;2.876;2022-07-29T14:59:31;8.80;;;3.75;;
61150;SDS011;47029;50.994;2.876;2022-07-29T15:02:01;11.00;;;4.03;;
61150;SDS011;47029;50.994;2.876;2022-07-29T15:04:29;12.32;;;3.78;;
61150;SDS011;47029;50.994;2.876;2022-07-29T15:06:58;10.40;;;4.85;;
61150;SDS011;47029;50.994;2.876;2022-07-29T15:09:27;11.35;;;4.03;;
61150;SDS011;47029;50.994;2.876;2022-07-29T15:11:56;9.48;;;4.10;;
61150;SDS011;47029;50.994;2.876;2022-07-29T15:14:25;10.60;;;4.12;;
61150;SDS011;47029;50.994;2.876;2022-07-29T15:16:54;11.05;;;4.10;;
61150;SDS011;47029;50.994;2.876;2022-07-29T15:19:20;9.95;;;3.70;;
61150;SDS011;47029;50.994;2.876;2022-07-29T15:21:45;14.02;;;4.47;;
61150;SDS011;47029;50.994;2.876;2022-07-29T15:24:14;9.95;;;3.55;;
61150;SDS011;47029;50.994;2.876;2022-07-29T15:26:43;8.32;;;3.70;;